Bartlesville, OK (74006)

04:02 AM CST del 31 Gennaio 2015 (GMT -0600)
East Drive | Change Station
CLOSE
Current Station
Stazione meteo personale
Location: Bartlesville, OK
Altitudine: 752 ft
Stazioni meteo nelle vicinanze

Alt. 752 ft 36.73 °N, 95.91 °W | Updated 12 minutes ago

Coperto
Coperto
41.2 °F
Sembra 41 °F
N
0.0
Vento Variabile Vento da SE

Oggi
Massima -- | Minima -- °F
--% Possibilità di precip.
Ieri
Massima -- | Minima -- °F
Precip. -- in
7:26 AM 5:48 PM
Gobba a ponente, 88% visible
Pressione 30.26 in
Visibilità 10.0 miglia
Nuvole Alcuni 6500 ft
Coperto 8000 ft
Raffreddamento del vento 41 °F
Punto di rugiada 29 °F
Umidità 61%
Piovosità 0.00 in
Spessore del manto nevoso Non disponibile.
Raggi UV 0 fuori da 12
Polline 1.50 fuori da 12
Qualità dell'aria Non disponibile.
Flu Activity Non disponibile.
METAR KBVO 310953Z AUTO 00000KT 10SM FEW065 OVC080 05/M03 A3026 RMK AO2 SLP247 T00501028

More Conditions Fewer Conditions

Pressione 30.26 in
Visibilità 10.0 miglia
Nuvole Alcuni 6500 ft
Coperto 8000 ft
Raffreddamento del vento 41 °F
Punto di rugiada 29 °F
Umidità 61%
Piovosità 0.00 in
Spessore del manto nevoso Non disponibile.
Raggi UV 0 fuori da 12
Polline 1.50 fuori da 12
Qualità dell'aria Non disponibile.
Flu Activity Non disponibile.
METAR KBVO 310953Z AUTO 00000KT 10SM FEW065 OVC080 05/M03 A3026 RMK AO2 SLP247 T00501028

More Conditions Fewer Conditions

10-Day Weather Forecast

Almanac

Astronomia

Jan. 31, 2015 Alba Tramonto
Ora attuale
Crepuscolo civile
Crepuscolo nautico
Crepuscolo astronomico
Luna
Estensione della luce visibile
Lunghezza del giorno
Tomorrow will be .
, % of the Moon is Illuminated

Gli estremi di oggi

State Highs State Lows

Community

WunderPhotos

Upload Photos

1,792,021 foto caricate!

WunderBlogs® & News

Nearby

Qualità dell'aria

  Qualità dell'aria Indice AQ Inquinante
Not available.

Profondità neve

Stazione Profondità Altitudine

Attività sismica

Città  Distanza Mag. Data & Ora
Minimo Magnitudo Mostrato è 2.5.

Temperature delle acque costiere

Località Temperatura

Stazioni meteo nelle vicinanze